Time;durP1;ratioP1;P1;durP2;ratioP2;P2;SDS_P1;SDS_P2;PMS_P1;PMS_P2;Temp;Humidity;BMP_temperature;BMP_pressure;BME280_temperature;BME280_humidity;BME280_pressure;Samples;Min_cycle;Max_cycle;Signal;HPM_P1;HPM_P2
2022/03/25 00:00:24;;;;;;;5.97;2.15;;;22.10;99.90;;;;;;4989622;28;20121;-67
2022/03/25 00:02:52;;;;;;;7.95;2.25;;;21.90;99.90;;;;;;4977151;28;20054;-68
2022/03/25 00:05:20;;;;;;;13.02;2.28;;;22.00;99.90;;;;;;4974249;28;20037;-67
2022/03/25 00:07:48;;;;;;;11.80;3.17;;;22.20;99.90;;;;;;4984209;28;20019;-67
2022/03/25 00:10:15;;;;;;;6.93;1.70;;;22.30;99.90;;;;;;4974806;28;20031;-67
2022/03/25 00:12:43;;;;;;;10.13;2.60;;;22.10;99.90;;;;;;4983898;28;20174;-67
2022/03/25 00:15:10;;;;;;;6.95;1.83;;;22.00;99.90;;;;;;4990843;28;20022;-67
2022/03/25 00:17:37;;;;;;;7.78;1.88;;;21.70;99.90;;;;;;4992784;28;20019;-67
2022/03/25 00:20:05;;;;;;;10.75;1.85;;;21.70;99.90;;;;;;4975886;28;20092;-67
2022/03/25 00:22:33;;;;;;;7.95;2.08;;;21.90;99.90;;;;;;4990508;28;20030;-68
2022/03/25 00:25:00;;;;;;;8.73;1.60;;;21.80;99.90;;;;;;4991833;28;20042;-67
2022/03/25 00:27:28;;;;;;;9.57;2.30;;;21.70;99.90;;;;;;4991618;28;20033;-68
2022/03/25 00:29:55;;;;;;;7.82;2.20;;;21.70;99.90;;;;;;4980256;28;20026;-68
2022/03/25 00:32:23;;;;;;;9.85;1.42;;;21.60;99.90;;;;;;4990925;28;20027;-68
2022/03/25 00:34:51;;;;;;;6.97;1.60;;;21.60;99.90;;;;;;4983225;28;20050;-68
2022/03/25 00:37:18;;;;;;;8.50;1.70;;;21.40;99.90;;;;;;4990167;28;20019;-70
2022/03/25 00:39:45;;;;;;;7.55;1.77;;;21.50;99.90;;;;;;4994855;28;20030;-69
2022/03/25 00:42:13;;;;;;;10.60;1.77;;;21.60;99.90;;;;;;4994867;28;20030;-69
2022/03/25 00:44:41;;;;;;;7.28;1.85;;;21.50;99.90;;;;;;5000662;28;20050;-69
2022/03/25 00:47:09;;;;;;;8.70;1.77;;;21.50;99.90;;;;;;4993565;28;20471;-69
2022/03/25 00:49:37;;;;;;;8.43;1.60;;;21.50;99.90;;;;;;4979654;28;20031;-69
2022/03/25 00:52:04;;;;;;;8.65;2.00;;;21.50;99.90;;;;;;4987460;28;20038;-69
2022/03/25 00:54:32;;;;;;;11.52;2.25;;;21.40;99.90;;;;;;4982370;28;20116;-69
2022/03/25 00:56:59;;;;;;;9.00;1.85;;;21.40;99.90;;;;;;4988396;28;20026;-69
2022/03/25 00:59:27;;;;;;;11.70;2.90;;;21.40;99.90;;;;;;4988847;28;20036;-69
2022/03/25 01:01:54;;;;;;;5.85;1.38;;;21.50;99.90;;;;;;4997380;28;20046;-69
2022/03/25 01:04:22;;;;;;;8.20;2.35;;;21.60;99.90;;;;;;4985615;28;20038;-69
2022/03/25 01:06:49;;;;;;;7.35;1.60;;;21.60;99.90;;;;;;5005743;28;20030;-68
2022/03/25 01:09:17;;;;;;;7.75;1.70;;;21.70;99.90;;;;;;5010734;28;20030;-68
2022/03/25 01:11:47;;;;;;;5.40;1.63;;;21.70;99.90;;;;;;5009888;28;20050;-68
2022/03/25 01:14:14;;;;;;;6.60;1.30;;;21.70;99.90;;;;;;5024916;28;20042;-68
2022/03/25 01:16:41;;;;;;;11.98;1.88;;;21.80;99.90;;;;;;4996354;28;20034;-68
2022/03/25 01:19:10;;;;;;;10.23;2.47;;;21.80;99.90;;;;;;5003441;28;20081;-68
2022/03/25 01:21:38;;;;;;;4.85;1.38;;;21.80;99.90;;;;;;4990155;28;20034;-68
2022/03/25 01:24:05;;;;;;;6.00;1.30;;;21.80;99.90;;;;;;5000310;28;20069;-68
2022/03/25 01:26:33;;;;;;;6.28;1.58;;;21.80;99.90;;;;;;5000525;28;20015;-68
2022/03/25 01:29:00;;;;;;;5.55;1.40;;;21.90;99.90;;;;;;5011837;28;20032;-68
2022/03/25 01:31:27;;;;;;;10.18;1.70;;;21.90;99.90;;;;;;5008598;28;20010;-68
2022/03/25 01:33:55;;;;;;;5.40;1.60;;;21.90;99.90;;;;;;5004341;28;20027;-68
2022/03/25 01:36:22;;;;;;;5.70;1.67;;;22.00;99.90;;;;;;4996582;28;20031;-68
2022/03/25 01:38:50;;;;;;;8.82;1.75;;;21.90;99.90;;;;;;5009581;28;20019;-68
2022/03/25 01:41:18;;;;;;;8.70;1.70;;;21.90;99.90;;;;;;5007267;28;20038;-68
2022/03/25 01:43:57;;;;;;;8.38;2.08;;;22.00;99.90;;;;;;4999953;28;20070;-68
2022/03/25 01:46:26;;;;;;;6.00;1.73;;;22.10;99.90;;;;;;5012493;28;20073;-68
2022/03/25 01:48:54;;;;;;;6.07;1.85;;;22.20;99.90;;;;;;4999684;28;20134;-68
2022/03/25 01:51:29;;;;;;;5.07;1.42;;;22.30;99.90;;;;;;4993786;28;20023;-68
2022/03/25 01:54:08;;;;;;;6.00;1.38;;;22.40;99.90;;;;;;5005787;28;20026;-68
2022/03/25 01:56:36;;;;;;;5.38;1.80;;;22.40;99.90;;;;;;5002206;28;20026;-68
2022/03/25 01:59:04;;;;;;;5.75;1.80;;;22.40;99.90;;;;;;4997757;28;20044;-68
2022/03/25 02:01:31;;;;;;;5.68;1.50;;;22.50;99.90;;;;;;4992087;28;20026;-68
2022/03/25 02:03:59;;;;;;;5.40;1.30;;;22.50;99.90;;;;;;4991442;28;20350;-69
2022/03/25 02:06:26;;;;;;;9.95;2.80;;;22.60;99.90;;;;;;4992495;28;20034;-68
2022/03/25 02:08:53;;;;;;;5.97;1.20;;;22.70;99.90;;;;;;4992100;28;20019;-69
2022/03/25 02:11:21;;;;;;;8.60;1.30;;;22.80;99.90;;;;;;4995585;28;20038;-69
2022/03/25 02:13:48;;;;;;;6.68;1.15;;;22.90;99.90;;;;;;4991623;28;20026;-68
2022/03/25 02:16:15;;;;;;;7.13;1.42;;;22.80;99.90;;;;;;4990186;28;20041;-69
2022/03/25 02:18:43;;;;;;;6.43;1.58;;;23.30;99.90;;;;;;4990646;28;20430;-69
2022/03/25 02:21:10;;;;;;;4.53;0.98;;;23.80;99.90;;;;;;4995103;28;20018;-69
2022/03/25 02:23:37;;;;;;;7.13;1.08;;;23.80;99.90;;;;;;4977481;28;20031;-69
2022/03/25 02:26:05;;;;;;;8.05;1.85;;;23.80;99.90;;;;;;4990213;28;20034;-69
2022/03/25 02:28:33;;;;;;;7.20;1.23;;;23.50;99.90;;;;;;4987564;28;20041;-69
2022/03/25 02:31:00;;;;;;;5.63;1.13;;;23.20;99.90;;;;;;4993736;28;20019;-69
2022/03/25 02:33:27;;;;;;;3.58;0.68;;;23.00;99.90;;;;;;4990534;28;20604;-69
2022/03/25 02:35:54;;;;;;;6.00;1.67;;;22.90;99.90;;;;;;4992407;28;20110;-68
2022/03/25 02:38:24;;;;;;;11.02;1.75;;;22.90;99.90;;;;;;4992423;28;20092;-68
2022/03/25 02:40:51;;;;;;;10.73;2.78;;;22.90;99.90;;;;;;4984767;28;20023;-68
2022/03/25 02:43:19;;;;;;;7.68;1.85;;;22.60;99.90;;;;;;4989933;28;20026;-68
2022/03/25 02:45:46;;;;;;;8.65;1.80;;;22.30;99.90;;;;;;4989574;28;20116;-68
2022/03/25 02:48:14;;;;;;;10.57;1.95;;;22.10;99.90;;;;;;4986355;28;20082;-68
2022/03/25 02:50:41;;;;;;;9.35;1.80;;;22.10;99.90;;;;;;4988187;28;20117;-67
2022/03/25 02:53:09;;;;;;;7.05;1.80;;;22.20;99.90;;;;;;4988082;28;20478;-69
2022/03/25 02:55:36;;;;;;;6.78;1.52;;;22.30;99.90;;;;;;4988236;28;20026;-69
2022/03/25 02:58:03;;;;;;;8.07;1.60;;;22.20;99.90;;;;;;4999381;28;20030;-69
2022/03/25 03:00:31;;;;;;;10.70;1.70;;;22.20;99.90;;;;;;4990520;28;20474;-67
2022/03/25 03:03:01;;;;;;;8.80;1.70;;;22.30;99.90;;;;;;4985101;28;20039;-66
2022/03/25 03:05:30;;;;;;;8.27;1.27;;;22.20;99.90;;;;;;4986728;28;20042;-66
2022/03/25 03:07:58;;;;;;;8.38;2.40;;;22.20;99.90;;;;;;5000786;28;20046;-67
2022/03/25 03:10:27;;;;;;;8.85;2.20;;;22.20;99.90;;;;;;4999957;28;20125;-66
2022/03/25 03:12:59;;;;;;;12.77;2.50;;;22.10;99.90;;;;;;4987592;28;20039;-69
2022/03/25 03:15:26;;;;;;;12.68;2.60;;;22.10;99.90;;;;;;4984774;28;20030;-69
2022/03/25 03:17:53;;;;;;;8.95;2.08;;;22.10;99.90;;;;;;4985904;28;20437;-67
2022/03/25 03:20:24;;;;;;;10.25;3.17;;;22.10;99.90;;;;;;4989213;28;20034;-67
2022/03/25 03:22:52;;;;;;;12.80;3.65;;;22.10;99.90;;;;;;4991762;28;20026;-67
2022/03/25 03:25:20;;;;;;;9.15;1.90;;;22.10;99.90;;;;;;4974997;28;20045;-67
2022/03/25 03:27:47;;;;;;;9.35;1.90;;;22.00;99.90;;;;;;4980676;28;20022;-67
2022/03/25 03:30:15;;;;;;;8.07;2.15;;;22.00;99.90;;;;;;4986252;28;20054;-67
2022/03/25 03:32:43;;;;;;;8.73;2.30;;;22.10;99.90;;;;;;4986256;28;20033;-66
2022/03/25 03:35:10;;;;;;;8.70;2.15;;;22.30;99.90;;;;;;4975506;28;20034;-67
2022/03/25 03:37:45;;;;;;;6.60;1.35;;;22.30;99.90;;;;;;4989041;28;20081;-67
2022/03/25 03:40:14;;;;;;;9.07;2.45;;;22.20;99.90;;;;;;4989073;28;20026;-67
2022/03/25 03:42:42;;;;;;;7.93;1.65;;;22.10;99.90;;;;;;4990152;28;20061;-66
2022/03/25 03:45:14;;;;;;;10.25;1.65;;;22.00;99.90;;;;;;4984722;28;20113;-66
2022/03/25 03:47:42;;;;;;;9.50;1.77;;;21.90;99.90;;;;;;4990109;28;20030;-66
2022/03/25 03:50:13;;;;;;;11.75;2.35;;;21.70;99.90;;;;;;4985099;28;20429;-66
2022/03/25 03:52:41;;;;;;;13.90;2.75;;;21.60;99.90;;;;;;4989117;28;20026;-66
2022/03/25 03:55:09;;;;;;;12.50;2.28;;;21.50;99.90;;;;;;4988178;28;20053;-66
2022/03/25 03:57:38;;;;;;;13.52;2.42;;;21.50;99.90;;;;;;4979999;28;20030;-66
2022/03/25 04:00:10;;;;;;;11.65;2.20;;;21.50;99.90;;;;;;4975266;28;20103;-66
2022/03/25 04:02:38;;;;;;;11.45;1.95;;;21.60;99.90;;;;;;4990043;28;20034;-67
2022/03/25 04:05:06;;;;;;;10.77;2.25;;;21.60;99.90;;;;;;4986848;28;20045;-67
2022/03/25 04:07:40;;;;;;;9.73;1.85;;;21.40;99.90;;;;;;4989909;28;20037;-66
2022/03/25 04:10:08;;;;;;;12.68;2.67;;;21.40;99.90;;;;;;4984986;28;20033;-66
2022/03/25 04:12:35;;;;;;;7.10;1.65;;;21.40;99.90;;;;;;4987930;28;20037;-67
2022/03/25 04:15:10;;;;;;;6.22;1.63;;;21.50;99.90;;;;;;4988242;28;20022;-68
2022/03/25 04:17:38;;;;;;;4.85;1.30;;;21.60;99.90;;;;;;4986584;28;20034;-67
2022/03/25 04:20:07;;;;;;;12.48;1.42;;;21.50;99.90;;;;;;4988032;28;20018;-66
2022/03/25 04:22:34;;;;;;;8.18;1.98;;;21.60;99.90;;;;;;4990294;28;20041;-67
2022/03/25 04:25:01;;;;;;;6.82;1.58;;;21.60;99.90;;;;;;4987405;28;20019;-66
2022/03/25 04:27:29;;;;;;;11.10;1.90;;;21.70;99.90;;;;;;4987927;28;20035;-67
2022/03/25 04:29:56;;;;;;;8.23;2.22;;;21.80;99.90;;;;;;4990140;28;20046;-67
2022/03/25 04:32:24;;;;;;;10.25;2.03;;;21.90;99.90;;;;;;4979104;28;20014;-67
2022/03/25 04:34:51;;;;;;;8.10;2.60;;;22.00;99.90;;;;;;4987869;28;20525;-66
2022/03/25 04:37:18;;;;;;;8.57;2.88;;;22.10;99.90;;;;;;4993082;28;20502;-67
2022/03/25 04:39:45;;;;;;;9.32;2.70;;;22.20;99.90;;;;;;4993443;28;20030;-68
2022/03/25 04:42:13;;;;;;;8.25;2.35;;;22.20;99.90;;;;;;5004363;28;20030;-66
2022/03/25 04:44:40;;;;;;;6.78;1.70;;;22.10;99.90;;;;;;4985069;28;20042;-70
2022/03/25 04:47:08;;;;;;;10.07;2.15;;;22.00;99.90;;;;;;4979616;28;20962;-68
2022/03/25 04:49:35;;;;;;;6.55;1.17;;;21.90;99.90;;;;;;4987522;28;20034;-73
2022/03/25 04:52:03;;;;;;;6.70;2.17;;;21.90;99.90;;;;;;4982802;28;20030;-69
2022/03/25 04:54:30;;;;;;;5.32;1.40;;;21.80;99.90;;;;;;4984989;28;20030;-68
2022/03/25 04:56:57;;;;;;;7.53;2.20;;;21.70;99.90;;;;;;4980790;28;20034;-68
2022/03/25 04:59:25;;;;;;;8.95;1.58;;;21.60;99.90;;;;;;4986004;28;20033;-68
2022/03/25 05:01:52;;;;;;;6.38;1.98;;;21.60;99.90;;;;;;4985181;28;20033;-68
2022/03/25 05:04:20;;;;;;;6.05;1.33;;;21.60;99.90;;;;;;4979313;28;20525;-68
2022/03/25 05:06:48;;;;;;;4.35;1.42;;;21.60;99.90;;;;;;4983780;28;20271;-68
2022/03/25 05:09:15;;;;;;;3.63;1.10;;;21.50;99.90;;;;;;4987002;28;20037;-69
2022/03/25 05:11:42;;;;;;;7.15;1.60;;;21.40;99.90;;;;;;4986331;28;20109;-69
2022/03/25 05:14:10;;;;;;;5.00;1.20;;;21.40;99.90;;;;;;4986567;28;20430;-69
2022/03/25 05:16:37;;;;;;;7.90;1.40;;;21.30;99.90;;;;;;4987976;28;20033;-68
2022/03/25 05:19:05;;;;;;;6.68;1.13;;;21.10;99.90;;;;;;4987402;28;20026;-68
2022/03/25 05:21:32;;;;;;;5.60;1.10;;;20.80;99.90;;;;;;4983098;28;20074;-69
2022/03/25 05:23:59;;;;;;;8.55;1.38;;;20.80;99.90;;;;;;4987471;28;20026;-69
2022/03/25 05:26:27;;;;;;;9.57;2.50;;;20.40;99.90;;;;;;4991320;28;20041;-69
2022/03/25 05:28:54;;;;;;;8.55;2.30;;;20.10;99.90;;;;;;4988196;28;20030;-68
2022/03/25 05:31:21;;;;;;;10.13;2.67;;;19.80;99.90;;;;;;4986331;28;20026;-66
2022/03/25 05:33:48;;;;;;;13.68;2.90;;;19.80;99.90;;;;;;4987977;28;20022;-66
2022/03/25 05:36:16;;;;;;;13.60;2.55;;;19.50;99.90;;;;;;4993353;28;20549;-65
2022/03/25 05:38:43;;;;;;;8.23;2.47;;;19.40;99.90;;;;;;4988806;28;20023;-66
2022/03/25 05:41:10;;;;;;;11.30;3.45;;;19.20;99.90;;;;;;4989286;28;20057;-66
2022/03/25 05:43:38;;;;;;;10.75;3.38;;;19.30;99.90;;;;;;4991895;28;20549;-66
2022/03/25 05:46:05;;;;;;;10.32;3.80;;;19.20;99.90;;;;;;4989954;28;20030;-66
2022/03/25 05:48:33;;;;;;;11.52;3.60;;;19.20;99.90;;;;;;4985646;28;20482;-66
2022/03/25 05:51:00;;;;;;;13.13;3.17;;;19.20;99.90;;;;;;4986155;28;20030;-66
2022/03/25 05:53:28;;;;;;;9.20;3.05;;;19.20;99.90;;;;;;4988882;28;20033;-67
2022/03/25 05:55:55;;;;;;;10.40;2.75;;;19.20;99.90;;;;;;4985112;28;20025;-67
2022/03/25 05:58:26;;;;;;;10.20;2.90;;;19.10;99.90;;;;;;4987759;28;20380;-66
2022/03/25 06:00:53;;;;;;;8.68;3.70;;;19.10;99.90;;;;;;4993292;28;20054;-66
2022/03/25 06:03:20;;;;;;;7.10;2.40;;;19.10;99.90;;;;;;4988346;28;20027;-67
2022/03/25 06:05:47;;;;;;;10.02;2.88;;;19.20;99.90;;;;;;4989837;28;20390;-66
2022/03/25 06:08:14;;;;;;;12.55;3.55;;;19.20;99.90;;;;;;4991608;28;20077;-66
2022/03/25 06:10:42;;;;;;;7.20;3.30;;;19.20;99.90;;;;;;4990478;28;20030;-69
2022/03/25 06:13:09;;;;;;;11.73;4.35;;;19.20;99.90;;;;;;4991157;28;20030;-69
2022/03/25 06:15:36;;;;;;;9.70;4.38;;;19.30;99.90;;;;;;4993291;28;20037;-69
2022/03/25 06:18:04;;;;;;;8.57;3.60;;;19.20;99.90;;;;;;4986115;28;20040;-69
2022/03/25 06:20:31;;;;;;;9.98;3.60;;;19.20;99.90;;;;;;4992002;28;20513;-68
2022/03/25 06:22:58;;;;;;;11.15;4.07;;;19.20;99.90;;;;;;4987667;28;20058;-68
2022/03/25 06:25:26;;;;;;;9.60;3.35;;;19.20;99.90;;;;;;4990618;28;20109;-69
2022/03/25 06:27:58;;;;;;;9.15;2.85;;;19.20;99.90;;;;;;4987119;28;20057;-68
2022/03/25 06:30:28;;;;;;;7.88;3.58;;;19.10;99.90;;;;;;4982597;28;20482;-68
2022/03/25 06:32:55;;;;;;;7.95;3.65;;;19.10;99.90;;;;;;4989536;28;20022;-69
2022/03/25 06:35:24;;;;;;;13.00;4.47;;;19.10;99.90;;;;;;4988848;28;20061;-68
2022/03/25 06:37:55;;;;;;;8.70;2.80;;;19.20;99.90;;;;;;4990021;28;20411;-65
2022/03/25 06:40:23;;;;;;;8.60;2.42;;;19.20;99.90;;;;;;4988673;28;20105;-67
2022/03/25 06:42:57;;;;;;;11.20;3.10;;;19.30;99.90;;;;;;4987793;28;20423;-65
2022/03/25 06:45:25;;;;;;;8.15;4.25;;;19.40;99.90;;;;;;4988900;28;20057;-68
2022/03/25 06:47:53;;;;;;;8.93;4.00;;;19.30;99.90;;;;;;4986040;28;20487;-69
2022/03/25 06:50:22;;;;;;;8.85;4.10;;;19.30;99.90;;;;;;4984681;28;20027;-68
2022/03/25 06:52:50;;;;;;;8.75;3.58;;;19.30;99.90;;;;;;4991547;28;20364;-69
2022/03/25 06:55:17;;;;;;;7.03;2.75;;;19.40;99.90;;;;;;4989966;28;20030;-68
2022/03/25 06:57:45;;;;;;;10.98;3.05;;;19.40;99.90;;;;;;5006708;28;20089;-69
2022/03/25 07:00:13;;;;;;;7.07;2.70;;;19.40;99.90;;;;;;4990376;28;20036;-68
2022/03/25 07:02:42;;;;;;;6.68;2.38;;;19.40;99.90;;;;;;4987502;28;20423;-68
2022/03/25 07:05:11;;;;;;;7.88;4.22;;;19.40;99.90;;;;;;4988802;28;20029;-69
2022/03/25 07:07:41;;;;;;;8.48;2.97;;;19.40;99.90;;;;;;4990355;28;20038;-69
2022/03/25 07:10:13;;;;;;;8.80;3.42;;;19.40;99.90;;;;;;4983169;28;20030;-68
2022/03/25 07:12:43;;;;;;;7.53;2.95;;;19.40;99.90;;;;;;4979804;28;20041;-68
2022/03/25 07:15:12;;;;;;;10.23;4.30;;;19.40;99.90;;;;;;4985566;28;20034;-69
2022/03/25 07:17:43;;;;;;;8.80;2.70;;;19.50;99.90;;;;;;4990163;28;20029;-69
2022/03/25 07:20:14;;;;;;;9.48;3.42;;;19.50;99.90;;;;;;4988708;28;20069;-70
2022/03/25 07:22:47;;;;;;;10.57;3.67;;;19.50;99.90;;;;;;4988368;28;20054;-69
2022/03/25 07:25:15;;;;;;;10.15;3.40;;;19.50;99.90;;;;;;4988241;28;20029;-69
2022/03/25 07:27:44;;;;;;;12.90;3.85;;;19.60;99.90;;;;;;5004146;28;20066;-68
2022/03/25 07:30:13;;;;;;;8.52;3.25;;;19.60;99.90;;;;;;4988722;28;20019;-69
2022/03/25 07:32:40;;;;;;;11.30;3.60;;;19.70;99.90;;;;;;4989169;28;20084;-69
2022/03/25 07:35:09;;;;;;;10.18;4.22;;;19.70;99.90;;;;;;4986273;28;20022;-69
2022/03/25 07:37:42;;;;;;;12.70;3.90;;;19.70;99.90;;;;;;4989261;28;20092;-69
2022/03/25 07:40:11;;;;;;;6.30;3.53;;;19.70;99.90;;;;;;4988639;28;20050;-67
2022/03/25 07:42:39;;;;;;;9.07;3.30;;;19.80;99.90;;;;;;4987278;28;20029;-67
2022/03/25 07:45:13;;;;;;;8.88;3.53;;;19.80;99.90;;;;;;4987879;28;20050;-66
2022/03/25 07:47:51;;;;;;;9.25;3.38;;;19.70;99.90;;;;;;4980060;28;20027;-67
2022/03/25 07:50:20;;;;;;;8.93;3.97;;;19.70;99.90;;;;;;4985290;28;20034;-69
2022/03/25 07:52:49;;;;;;;6.03;2.60;;;19.60;99.90;;;;;;4986529;28;20019;-69
2022/03/25 07:55:18;;;;;;;9.38;2.83;;;19.50;99.90;;;;;;5002288;28;20029;-69
2022/03/25 07:57:46;;;;;;;6.38;2.83;;;19.50;99.90;;;;;;4989062;28;20057;-69
2022/03/25 08:00:15;;;;;;;9.98;2.83;;;19.40;99.90;;;;;;4987237;28;20049;-68
2022/03/25 08:02:47;;;;;;;8.48;2.97;;;19.40;99.90;;;;;;4983310;28;20065;-69
2022/03/25 08:05:15;;;;;;;7.97;3.28;;;19.40;99.90;;;;;;4988530;28;20033;-69
2022/03/25 08:07:49;;;;;;;5.47;2.38;;;19.40;99.90;;;;;;4987323;28;20043;-70
2022/03/25 08:10:22;;;;;;;7.25;2.60;;;19.40;99.90;;;;;;4989709;28;20024;-69
2022/03/25 08:12:51;;;;;;;4.38;2.47;;;19.40;99.90;;;;;;4985681;28;20022;-69
2022/03/25 08:15:18;;;;;;;6.45;2.92;;;19.40;99.90;;;;;;4986608;28;20125;-67
2022/03/25 08:17:57;;;;;;;8.43;2.13;;;19.40;99.90;;;;;;4983510;28;20032;-67
2022/03/25 08:20:27;;;;;;;7.07;2.70;;;19.50;99.90;;;;;;4989006;28;20037;-67
2022/03/25 08:22:57;;;;;;;9.30;2.53;;;19.50;99.90;;;;;;5001473;28;20557;-67
2022/03/25 08:28:10;;;;;;;6.82;2.42;;;19.50;99.90;;;;;;4982346;28;20072;-68
2022/03/25 08:30:38;;;;;;;5.93;1.85;;;19.50;99.90;;;;;;4986757;28;20030;-67
2022/03/25 08:33:06;;;;;;;5.93;2.38;;;19.50;99.90;;;;;;4986779;28;20034;-67
2022/03/25 08:35:34;;;;;;;7.10;3.25;;;19.50;99.90;;;;;;4981459;28;20132;-67
2022/03/25 08:38:02;;;;;;;5.53;1.75;;;19.50;99.90;;;;;;4981262;28;20038;-67
2022/03/25 08:40:32;;;;;;;3.95;1.80;;;19.50;99.90;;;;;;4986840;28;20034;-67
2022/03/25 08:43:01;;;;;;;8.02;2.17;;;19.60;99.90;;;;;;4982357;28;20015;-67
2022/03/25 08:45:29;;;;;;;5.32;1.90;;;19.60;99.90;;;;;;4982286;28;20039;-68
2022/03/25 08:47:56;;;;;;;7.68;2.28;;;19.70;99.90;;;;;;4983910;28;20036;-67
2022/03/25 08:50:24;;;;;;;4.85;1.55;;;19.80;99.90;;;;;;4989133;28;20034;-69
2022/03/25 08:52:53;;;;;;;4.40;1.98;;;19.90;99.90;;;;;;4986302;28;21552;-68
2022/03/25 08:55:21;;;;;;;6.22;1.85;;;19.90;99.90;;;;;;4988027;28;20045;-68
2022/03/25 08:57:49;;;;;;;4.15;1.63;;;19.80;99.90;;;;;;4986802;28;20031;-68
2022/03/25 09:00:19;;;;;;;6.20;2.13;;;19.80;99.90;;;;;;4984406;28;20037;-68
2022/03/25 09:02:47;;;;;;;6.53;2.03;;;19.80;99.90;;;;;;4989826;28;20034;-70
2022/03/25 09:05:16;;;;;;;5.63;2.25;;;19.80;99.90;;;;;;4992580;28;20054;-68
2022/03/25 09:07:44;;;;;;;7.70;2.35;;;19.80;99.90;;;;;;4990333;28;20527;-69
2022/03/25 09:10:16;;;;;;;9.98;2.38;;;19.80;99.90;;;;;;4989147;28;20387;-68
2022/03/25 09:12:45;;;;;;;7.38;2.30;;;19.80;99.90;;;;;;4991337;28;20084;-69
2022/03/25 09:15:14;;;;;;;4.03;1.90;;;19.80;99.90;;;;;;4984164;28;20062;-69
2022/03/25 09:17:46;;;;;;;8.38;2.38;;;19.80;99.90;;;;;;4990054;28;20112;-69
2022/03/25 09:20:14;;;;;;;6.28;2.78;;;19.80;99.90;;;;;;4992871;28;20050;-68
2022/03/25 09:22:42;;;;;;;5.93;2.17;;;19.80;99.90;;;;;;4992071;28;20022;-68
2022/03/25 09:25:11;;;;;;;6.57;1.85;;;19.90;99.90;;;;;;4994620;28;20109;-68
2022/03/25 09:27:42;;;;;;;10.38;3.10;;;19.90;99.90;;;;;;4988276;28;20034;-68
2022/03/25 09:30:10;;;;;;;9.80;2.15;;;19.90;99.90;;;;;;4989638;28;20031;-69
2022/03/25 09:32:38;;;;;;;5.63;1.85;;;19.90;99.90;;;;;;4990650;28;20100;-68
2022/03/25 09:35:13;;;;;;;6.35;1.88;;;20.00;99.90;;;;;;4991056;28;20026;-69
2022/03/25 09:37:43;;;;;;;7.70;2.08;;;20.00;99.90;;;;;;4992600;28;20049;-69
2022/03/25 09:40:20;;;;;;;9.27;2.35;;;20.10;99.90;;;;;;4991790;28;20058;-68
2022/03/25 09:42:50;;;;;;;5.72;2.08;;;20.10;99.90;;;;;;4992532;28;20066;-68
2022/03/25 09:45:19;;;;;;;5.85;1.85;;;20.10;99.90;;;;;;4991060;28;20077;-69
2022/03/25 09:47:48;;;;;;;9.43;2.05;;;20.20;99.90;;;;;;5006468;28;20026;-68
2022/03/25 09:50:21;;;;;;;8.63;2.33;;;20.20;99.90;;;;;;4993649;28;20035;-69
2022/03/25 09:52:50;;;;;;;7.03;2.50;;;20.20;99.90;;;;;;4990969;28;20113;-68
2022/03/25 09:55:18;;;;;;;10.98;2.88;;;20.10;99.90;;;;;;4992717;28;20494;-69
2022/03/25 09:57:46;;;;;;;6.10;1.98;;;20.20;99.90;;;;;;4993322;28;20033;-68
2022/03/25 10:00:16;;;;;;;8.35;1.80;;;20.20;99.90;;;;;;4993001;28;20026;-67
2022/03/25 10:02:45;;;;;;;7.13;1.95;;;20.20;99.90;;;;;;4991520;28;20030;-68
2022/03/25 10:05:20;;;;;;;6.57;2.00;;;20.20;99.90;;;;;;4991661;28;20030;-69
2022/03/25 10:07:55;;;;;;;7.38;1.80;;;20.30;99.90;;;;;;5007476;28;20069;-69
2022/03/25 10:10:24;;;;;;;9.32;2.05;;;20.30;99.90;;;;;;4989079;28;20031;-66
2022/03/25 10:13:00;;;;;;;6.75;1.70;;;20.30;99.90;;;;;;4987434;28;20023;-67
2022/03/25 10:15:30;;;;;;;10.90;1.85;;;20.30;99.90;;;;;;5008609;28;20109;-67
2022/03/25 10:18:08;;;;;;;5.70;1.67;;;20.30;99.90;;;;;;4992724;28;20042;-67
2022/03/25 10:20:44;;;;;;;8.10;1.70;;;20.20;99.90;;;;;;4989255;28;20121;-67
2022/03/25 10:23:18;;;;;;;8.70;1.70;;;20.20;99.90;;;;;;4990952;28;20034;-67
2022/03/25 10:25:53;;;;;;;;;;;20.20;99.90;;;;;;4991526;28;20057;-67
2022/03/25 10:28:26;;;;;;;;;;;20.20;99.90;;;;;;4994028;28;19973;-68
2022/03/25 10:30:58;;;;;;;5.65;1.38;;;20.20;99.90;;;;;;4987641;28;19913;-68
2022/03/25 10:33:43;;;;;;;8.38;1.77;;;20.20;99.90;;;;;;4992017;28;20136;-67
2022/03/25 10:36:14;;;;;;;9.80;1.65;;;20.20;99.90;;;;;;4995956;28;20038;-68
2022/03/25 10:38:43;;;;;;;5.45;1.83;;;20.20;99.90;;;;;;4995225;28;20029;-67
2022/03/25 10:41:12;;;;;;;10.52;1.92;;;20.20;99.90;;;;;;4994763;28;20074;-68
2022/03/25 10:43:56;;;;;;;6.03;1.25;;;20.20;99.90;;;;;;4995616;28;20092;-69
2022/03/25 10:46:35;;;;;;;12.20;2.30;;;20.20;99.90;;;;;;4990710;28;20158;-69
2022/03/25 10:49:08;;;;;;;7.88;1.77;;;20.20;99.90;;;;;;4985032;28;20058;-69
2022/03/25 10:51:37;;;;;;;4.85;1.10;;;20.20;99.90;;;;;;4994644;28;20364;-70
2022/03/25 10:54:11;;;;;;;7.82;1.73;;;20.20;99.90;;;;;;4987897;28;20073;-70
2022/03/25 10:56:45;;;;;;;;;;;20.20;99.90;;;;;;4984255;28;20030;-70
2022/03/25 10:59:34;;;;;;;6.85;1.65;;;20.20;99.90;;;;;;4995751;28;20278;-70
2022/03/25 11:02:11;;;;;;;10.15;1.88;;;20.20;99.90;;;;;;4991209;28;20077;-70
2022/03/25 11:04:40;;;;;;;9.15;1.75;;;20.20;99.90;;;;;;4994685;28;20030;-69
2022/03/25 11:07:10;;;;;;;6.43;1.20;;;20.10;99.90;;;;;;4983455;28;20030;-69
2022/03/25 11:09:38;;;;;;;9.70;1.83;;;20.10;99.90;;;;;;4992904;28;20023;-70
2022/03/25 11:12:05;;;;;;;6.60;1.63;;;20.10;99.90;;;;;;4994694;28;20113;-69
2022/03/25 11:14:33;;;;;;;7.72;1.60;;;20.10;99.90;;;;;;4982855;28;20039;-67
2022/03/25 11:17:07;;;;;;;7.07;1.35;;;20.00;99.90;;;;;;5008569;28;20037;-70
2022/03/25 11:19:39;;;;;;;15.15;1.95;;;20.00;99.90;;;;;;4992714;28;20038;-68
2022/03/25 11:22:07;;;;;;;6.28;2.03;;;20.00;99.90;;;;;;4993004;28;20486;-69
2022/03/25 11:24:45;;;;;;;6.72;1.98;;;19.90;99.90;;;;;;4986922;28;20371;-68
2022/03/25 11:27:43;;;;;;;;;;;;;;;;;;;;;
2022/03/25 11:30:13;;;;;;;7.38;1.98;;;19.90;99.90;;;;;;4975140;28;20491;-68
2022/03/25 11:33:03;;;;;;;13.30;1.85;;;19.90;99.90;;;;;;4980735;28;20022;-68
2022/03/25 11:35:41;;;;;;;11.93;2.05;;;19.90;99.90;;;;;;4986084;28;20030;-68
2022/03/25 11:38:14;;;;;;;8.73;1.70;;;19.90;99.90;;;;;;4993302;28;20101;-68
2022/03/25 11:40:46;;;;;;;7.43;1.33;;;19.80;99.90;;;;;;4985483;28;20038;-69
2022/03/25 11:43:25;;;;;;;8.48;1.60;;;19.80;99.90;;;;;;4992177;28;20018;-68
2022/03/25 11:46:06;;;;;;;8.95;2.28;;;19.80;99.90;;;;;;4992746;28;20042;-68
2022/03/25 11:48:40;;;;;;;16.38;1.92;;;19.80;99.90;;;;;;4988070;28;20037;-69
2022/03/25 11:51:36;;;;;;;7.57;2.08;;;19.80;99.90;;;;;;4992924;28;20018;-69
2022/03/25 11:54:42;;;;;;;3.95;1.10;;;19.80;99.90;;;;;;4983689;28;20118;-69
2022/03/25 11:57:26;;;;;;;5.85;1.20;;;20.00;99.90;;;;;;4993666;28;20030;-69
2022/03/25 11:59:59;;;;;;;5.60;0.93;;;20.10;99.90;;;;;;4991397;28;20026;-69
2022/03/25 12:02:36;;;;;;;5.20;0.85;;;20.00;99.90;;;;;;4992664;28;20022;-69
2022/03/25 12:05:25;;;;;;;9.02;1.08;;;19.90;99.90;;;;;;4987641;28;20491;-68
2022/03/25 12:08:35;;;;;;;8.85;1.02;;;19.70;99.90;;;;;;4989436;28;20030;-69
2022/03/25 12:11:07;;;;;;;6.57;0.90;;;19.60;99.90;;;;;;4991863;28;20113;-68
2022/03/25 12:13:55;;;;;;;6.82;1.63;;;19.60;99.90;;;;;;4992630;28;20034;-69
2022/03/25 12:16:47;;;;;;;6.35;1.15;;;19.60;99.90;;;;;;4997733;28;20065;-69
2022/03/25 12:19:27;;;;;;;5.75;0.98;;;19.70;99.90;;;;;;5000002;28;20034;-69
2022/03/25 12:21:57;;;;;;;5.85;1.13;;;19.60;99.90;;;;;;4990742;28;20022;-69
2022/03/25 12:24:25;;;;;;;7.38;1.20;;;19.60;99.90;;;;;;4991894;28;20125;-69
2022/03/25 12:27:02;;;;;;;8.10;1.65;;;19.50;99.90;;;;;;4992540;28;20034;-69
2022/03/25 12:29:34;;;;;;;3.55;0.63;;;19.50;99.90;;;;;;4989969;28;20501;-69
2022/03/25 12:32:03;;;;;;;4.47;1.45;;;19.50;99.90;;;;;;4992592;28;20137;-69
2022/03/25 12:34:52;;;;;;;8.00;1.23;;;19.40;99.90;;;;;;4986325;28;20105;-69
2022/03/25 12:37:25;;;;;;;5.35;1.10;;;19.40;99.90;;;;;;4975012;28;20030;-68
2022/03/25 12:39:53;;;;;;;6.15;1.10;;;19.40;99.90;;;;;;4988423;28;20031;-70
2022/03/25 12:42:21;;;;;;;6.50;1.17;;;19.50;99.90;;;;;;4992009;28;20114;-69
2022/03/25 12:44:54;;;;;;;8.32;1.95;;;19.40;99.90;;;;;;4991708;28;20081;-69
2022/03/25 12:47:32;;;;;;;5.57;1.40;;;19.30;99.90;;;;;;4992559;28;20117;-68
2022/03/25 12:50:01;;;;;;;10.75;1.80;;;19.20;99.90;;;;;;4990927;28;20034;-68
2022/03/25 12:52:29;;;;;;;8.85;1.70;;;19.20;99.90;;;;;;4990733;28;20125;-68
2022/03/25 12:55:12;;;;;;;6.75;1.30;;;19.10;99.90;;;;;;4977429;28;20089;-69
2022/03/25 12:57:41;;;;;;;7.78;1.02;;;19.20;99.90;;;;;;4991264;28;20118;-69
2022/03/25 13:00:11;;;;;;;5.10;0.90;;;19.10;99.90;;;;;;4990819;28;20030;-69
2022/03/25 13:02:41;;;;;;;8.23;1.13;;;19.10;99.90;;;;;;4991752;28;20106;-69